Petrozavodsk, Russia
Current Conditions -  °F | °C
As of 1:20 AM on Tuesday 25 Nov 2014 (Local Time) from EFJO Reporting Station
Overcast Overcast  
Wind Chill: 21°   Ceiling: 700
Heat Index: 30°   Visibility: 6mi
Dew Point: 30°   Wind: 12mph
Humidity: 100%   Direction: 160°SSE
Pressure: 30.24"   Gusts: NA
Location:  61.82°N, 34.33°E
Report Text: EFJO 242220Z AUTO 16010KT 120V200 9999 OVC007 M01/M01 Q1024
Loading
Personal Weather Stations






























Interactive Weather Map New forecast layout! Learn more

10-Day Weather Forecast

Advertisements
Track Severe Weather on mobile